LiveATC.Net - Listen to live air traffic control over the Internet!


ICAO: SVVA  IATA: VLN   Airport: Arturo Michelena International Airport
City: Valencia
Country: Venezuela   Continent: South America
SVVA METAR Weather: SVVA 261300Z 23006KT 9999 BKN016 26/24 Q1017
SVVA Flight Activity (FlightAware)
SVVA Gnd/Twr/App
Feed Status: UP   Listeners: 3
Listen right in your browser - requires Flash (in browser, requires Flash)
Click here to listen with your own player (launches your MP3 player)
SVVA Gnd/Twr/App Audio Archives
FacilityFrequency
Libertador Approach119.300
Valencia Ground121.900
Valencia Tower121.200


NOTICE

Unauthorized use prohibited. See LiveATC.net Terms of Service


Find LiveATC Audio Streams


Airport/ARTCC Code

Frequency
(e.g., 124.400, 128.75)
Site-wide search

Browse LiveATC Feeds
LiveATC Coverage Map
Top 50 LiveATC Feeds
Bad Weather Areas

LiveATC FAQ
Offer a LiveATC Feed
Contact LiveATC.net
Press Inquiries

LiveATC on iPhone
LiveATC on Android

Windows Phone
Windows 8/10

LiveATC Mobile
(Mobile browser)

ATC Audio Archives
Interesting Recordings

LiveATC Forums


Home Page
About LiveATC.net
Make a Donation
LiveATC Store

Terms of Use
Privacy Policy

Canadian Air Freqs

AIRMETs/SIGMETs

FAA Airport Status
Nat'l Airspace Status
Arrival Demand Charts


Server Software By:
Icecast.org
Liquidsoap